sensor_id;sensor_type;location;lat;lon;timestamp;P1;durP1;ratioP1;P2;durP2;ratioP2
18217;SDS011;9234;49.344;11.120;2023-05-29T00:02:25;8.35;;;4.03;;
18217;SDS011;9234;49.344;11.120;2023-05-29T00:04:54;6.28;;;3.30;;
18217;SDS011;9234;49.344;11.120;2023-05-29T00:07:22;7.28;;;4.30;;
18217;SDS011;9234;49.344;11.120;2023-05-29T00:09:52;4.57;;;3.25;;
18217;SDS011;9234;49.344;11.120;2023-05-29T00:12:20;6.45;;;4.20;;
18217;SDS011;9234;49.344;11.120;2023-05-29T00:14:49;5.80;;;3.67;;
18217;SDS011;9234;49.344;11.120;2023-05-29T00:17:17;5.50;;;3.97;;
18217;SDS011;9234;49.344;11.120;2023-05-29T00:19:46;6.50;;;3.72;;
18217;SDS011;9234;49.344;11.120;2023-05-29T00:22:15;6.20;;;3.78;;
18217;SDS011;9234;49.344;11.120;2023-05-29T00:24:43;4.75;;;3.28;;
18217;SDS011;9234;49.344;11.120;2023-05-29T00:27:13;5.68;;;3.70;;
18217;SDS011;9234;49.344;11.120;2023-05-29T00:29:41;4.63;;;3.00;;
18217;SDS011;9234;49.344;11.120;2023-05-29T00:32:09;5.93;;;3.50;;
18217;SDS011;9234;49.344;11.120;2023-05-29T00:34:38;6.30;;;3.50;;
18217;SDS011;9234;49.344;11.120;2023-05-29T00:37:06;7.75;;;3.45;;
18217;SDS011;9234;49.344;11.120;2023-05-29T00:39:34;4.53;;;2.92;;
18217;SDS011;9234;49.344;11.120;2023-05-29T00:42:03;6.32;;;3.45;;
18217;SDS011;9234;49.344;11.120;2023-05-29T00:44:34;4.30;;;3.45;;
18217;SDS011;9234;49.344;11.120;2023-05-29T00:47:03;5.07;;;3.37;;
18217;SDS011;9234;49.344;11.120;2023-05-29T00:49:31;7.13;;;3.17;;
18217;SDS011;9234;49.344;11.120;2023-05-29T00:52:03;5.55;;;3.20;;
18217;SDS011;9234;49.344;11.120;2023-05-29T00:54:34;7.38;;;3.35;;
18217;SDS011;9234;49.344;11.120;2023-05-29T00:57:03;5.47;;;3.90;;
18217;SDS011;9234;49.344;11.120;2023-05-29T00:59:34;6.38;;;3.13;;
18217;SDS011;9234;49.344;11.120;2023-05-29T01:02:03;7.15;;;3.42;;
18217;SDS011;9234;49.344;11.120;2023-05-29T01:04:32;6.20;;;3.50;;
18217;SDS011;9234;49.344;11.120;2023-05-29T01:07:02;5.13;;;3.42;;
18217;SDS011;9234;49.344;11.120;2023-05-29T01:09:31;6.63;;;3.58;;
18217;SDS011;9234;49.344;11.120;2023-05-29T01:12:03;7.00;;;3.63;;
18217;SDS011;9234;49.344;11.120;2023-05-29T01:14:48;6.75;;;3.42;;
18217;SDS011;9234;49.344;11.120;2023-05-29T01:17:34;7.55;;;3.65;;
18217;SDS011;9234;49.344;11.120;2023-05-29T01:20:23;7.20;;;3.55;;
18217;SDS011;9234;49.344;11.120;2023-05-29T01:29:22;5.72;;;3.55;;
18217;SDS011;9234;49.344;11.120;2023-05-29T01:31:55;6.23;;;3.43;;
18217;SDS011;9234;49.344;11.120;2023-05-29T01:34:25;7.33;;;3.57;;
18217;SDS011;9234;49.344;11.120;2023-05-29T01:36:53;4.03;;;3.07;;
18217;SDS011;9234;49.344;11.120;2023-05-29T01:39:22;6.87;;;3.37;;
18217;SDS011;9234;49.344;11.120;2023-05-29T01:41:53;5.63;;;3.73;;
18217;SDS011;9234;49.344;11.120;2023-05-29T01:44:23;6.80;;;3.60;;
18217;SDS011;9234;49.344;11.120;2023-05-29T01:46:53;5.13;;;3.57;;
18217;SDS011;9234;49.344;11.120;2023-05-29T01:49:22;4.03;;;2.93;;
18217;SDS011;9234;49.344;11.120;2023-05-29T01:51:53;5.77;;;3.60;;
18217;SDS011;9234;49.344;11.120;2023-05-29T01:54:22;4.90;;;3.57;;
18217;SDS011;9234;49.344;11.120;2023-05-29T01:56:51;6.30;;;3.50;;
18217;SDS011;9234;49.344;11.120;2023-05-29T01:59:21;7.23;;;3.83;;
18217;SDS011;9234;49.344;11.120;2023-05-29T02:01:51;6.37;;;3.90;;
18217;SDS011;9234;49.344;11.120;2023-05-29T02:04:19;8.27;;;3.93;;
18217;SDS011;9234;49.344;11.120;2023-05-29T02:06:47;7.83;;;3.57;;
18217;SDS011;9234;49.344;11.120;2023-05-29T02:11:44;4.87;;;3.23;;
18217;SDS011;9234;49.344;11.120;2023-05-29T02:14:14;4.53;;;3.30;;
18217;SDS011;9234;49.344;11.120;2023-05-29T02:16:42;13.47;;;4.23;;
18217;SDS011;9234;49.344;11.120;2023-05-29T02:19:11;4.10;;;3.37;;
18217;SDS011;9234;49.344;11.120;2023-05-29T02:21:39;5.77;;;3.50;;
18217;SDS011;9234;49.344;11.120;2023-05-29T02:24:08;7.82;;;3.97;;
18217;SDS011;9234;49.344;11.120;2023-05-29T02:26:36;6.27;;;3.57;;
18217;SDS011;9234;49.344;11.120;2023-05-29T02:29:04;4.33;;;3.57;;
18217;SDS011;9234;49.344;11.120;2023-05-29T02:31:34;6.63;;;3.73;;
18217;SDS011;9234;49.344;11.120;2023-05-29T02:34:03;7.90;;;4.77;;
18217;SDS011;9234;49.344;11.120;2023-05-29T02:36:32;4.30;;;3.53;;
18217;SDS011;9234;49.344;11.120;2023-05-29T02:39:03;6.83;;;3.67;;
18217;SDS011;9234;49.344;11.120;2023-05-29T02:41:33;8.53;;;4.37;;
18217;SDS011;9234;49.344;11.120;2023-05-29T02:44:01;6.20;;;3.23;;
18217;SDS011;9234;49.344;11.120;2023-05-29T02:46:29;8.03;;;3.93;;
18217;SDS011;9234;49.344;11.120;2023-05-29T02:48:58;6.33;;;4.07;;
18217;SDS011;9234;49.344;11.120;2023-05-29T02:51:27;9.57;;;3.80;;
18217;SDS011;9234;49.344;11.120;2023-05-29T02:53:56;5.27;;;3.40;;
18217;SDS011;9234;49.344;11.120;2023-05-29T02:56:24;9.60;;;3.90;;
18217;SDS011;9234;49.344;11.120;2023-05-29T02:58:52;5.90;;;4.00;;
18217;SDS011;9234;49.344;11.120;2023-05-29T03:01:21;5.43;;;3.47;;
18217;SDS011;9234;49.344;11.120;2023-05-29T03:03:49;4.77;;;4.00;;
18217;SDS011;9234;49.344;11.120;2023-05-29T03:06:19;7.80;;;3.87;;
18217;SDS011;9234;49.344;11.120;2023-05-29T03:08:47;4.63;;;3.37;;
18217;SDS011;9234;49.344;11.120;2023-05-29T03:11:16;8.10;;;3.50;;
18217;SDS011;9234;49.344;11.120;2023-05-29T03:13:44;7.93;;;3.83;;
18217;SDS011;9234;49.344;11.120;2023-05-29T03:16:13;5.27;;;3.63;;
18217;SDS011;9234;49.344;11.120;2023-05-29T03:18:43;4.80;;;3.63;;
18217;SDS011;9234;49.344;11.120;2023-05-29T03:21:13;5.20;;;3.50;;
18217;SDS011;9234;49.344;11.120;2023-05-29T03:23:44;5.60;;;3.70;;
18217;SDS011;9234;49.344;11.120;2023-05-29T03:26:13;6.33;;;4.27;;
18217;SDS011;9234;49.344;11.120;2023-05-29T03:28:42;4.80;;;3.77;;
18217;SDS011;9234;49.344;11.120;2023-05-29T03:31:11;5.80;;;3.67;;
18217;SDS011;9234;49.344;11.120;2023-05-29T03:33:39;4.53;;;3.63;;
18217;SDS011;9234;49.344;11.120;2023-05-29T03:36:15;7.83;;;4.17;;
18217;SDS011;9234;49.344;11.120;2023-05-29T03:38:45;4.87;;;4.13;;
18217;SDS011;9234;49.344;11.120;2023-05-29T03:41:14;6.47;;;4.07;;
18217;SDS011;9234;49.344;11.120;2023-05-29T03:43:42;6.67;;;4.17;;
18217;SDS011;9234;49.344;11.120;2023-05-29T03:46:10;6.47;;;4.10;;
18217;SDS011;9234;49.344;11.120;2023-05-29T03:48:39;6.53;;;4.27;;
18217;SDS011;9234;49.344;11.120;2023-05-29T03:51:07;6.30;;;3.77;;
18217;SDS011;9234;49.344;11.120;2023-05-29T03:53:37;6.33;;;4.03;;
18217;SDS011;9234;49.344;11.120;2023-05-29T03:56:08;8.27;;;4.63;;
18217;SDS011;9234;49.344;11.120;2023-05-29T03:58:36;7.07;;;4.47;;
18217;SDS011;9234;49.344;11.120;2023-05-29T04:01:06;6.07;;;4.00;;
18217;SDS011;9234;49.344;11.120;2023-05-29T04:03:34;7.90;;;4.63;;
18217;SDS011;9234;49.344;11.120;2023-05-29T04:06:04;6.97;;;4.40;;
18217;SDS011;9234;49.344;11.120;2023-05-29T04:08:34;6.87;;;4.20;;
18217;SDS011;9234;49.344;11.120;2023-05-29T04:11:02;6.23;;;4.10;;
18217;SDS011;9234;49.344;11.120;2023-05-29T04:13:32;7.93;;;4.50;;
18217;SDS011;9234;49.344;11.120;2023-05-29T04:16:00;8.37;;;4.07;;
18217;SDS011;9234;49.344;11.120;2023-05-29T04:18:29;5.60;;;4.00;;
18217;SDS011;9234;49.344;11.120;2023-05-29T04:20:57;6.47;;;3.93;;
18217;SDS011;9234;49.344;11.120;2023-05-29T04:23:26;6.43;;;4.50;;
18217;SDS011;9234;49.344;11.120;2023-05-29T04:25:54;5.47;;;3.63;;
18217;SDS011;9234;49.344;11.120;2023-05-29T04:28:25;10.83;;;4.23;;
18217;SDS011;9234;49.344;11.120;2023-05-29T04:30:56;8.93;;;4.43;;
18217;SDS011;9234;49.344;11.120;2023-05-29T04:33:25;6.07;;;4.20;;
18217;SDS011;9234;49.344;11.120;2023-05-29T04:35:55;6.50;;;4.23;;
18217;SDS011;9234;49.344;11.120;2023-05-29T04:38:25;7.47;;;4.20;;
18217;SDS011;9234;49.344;11.120;2023-05-29T04:40:54;7.00;;;4.53;;
18217;SDS011;9234;49.344;11.120;2023-05-29T04:43:26;6.80;;;4.23;;
18217;SDS011;9234;49.344;11.120;2023-05-29T04:46:03;9.10;;;4.60;;
18217;SDS011;9234;49.344;11.120;2023-05-29T04:48:34;6.43;;;4.80;;
18217;SDS011;9234;49.344;11.120;2023-05-29T04:51:02;7.50;;;4.43;;
18217;SDS011;9234;49.344;11.120;2023-05-29T04:53:31;7.97;;;4.40;;
18217;SDS011;9234;49.344;11.120;2023-05-29T04:55:59;6.13;;;4.57;;
18217;SDS011;9234;49.344;11.120;2023-05-29T04:58:28;8.37;;;4.77;;
18217;SDS011;9234;49.344;11.120;2023-05-29T05:00:57;6.63;;;4.33;;
18217;SDS011;9234;49.344;11.120;2023-05-29T05:03:30;7.53;;;5.23;;
18217;SDS011;9234;49.344;11.120;2023-05-29T05:06:00;7.40;;;4.07;;
18217;SDS011;9234;49.344;11.120;2023-05-29T05:08:30;7.57;;;4.93;;
18217;SDS011;9234;49.344;11.120;2023-05-29T05:10:59;9.60;;;5.00;;
18217;SDS011;9234;49.344;11.120;2023-05-29T05:13:28;6.83;;;4.23;;
18217;SDS011;9234;49.344;11.120;2023-05-29T05:15:57;7.53;;;4.40;;
18217;SDS011;9234;49.344;11.120;2023-05-29T05:18:27;6.87;;;4.60;;
18217;SDS011;9234;49.344;11.120;2023-05-29T05:21:03;8.40;;;4.67;;
18217;SDS011;9234;49.344;11.120;2023-05-29T05:23:33;7.83;;;5.40;;
18217;SDS011;9234;49.344;11.120;2023-05-29T05:26:22;6.15;;;5.13;;
18217;SDS011;9234;49.344;11.120;2023-05-29T05:28:50;11.47;;;5.30;;
18217;SDS011;9234;49.344;11.120;2023-05-29T05:31:19;6.17;;;4.67;;
18217;SDS011;9234;49.344;11.120;2023-05-29T05:33:47;8.90;;;4.83;;
18217;SDS011;9234;49.344;11.120;2023-05-29T05:36:18;12.40;;;5.43;;
18217;SDS011;9234;49.344;11.120;2023-05-29T05:38:53;7.27;;;4.80;;
18217;SDS011;9234;49.344;11.120;2023-05-29T05:41:22;7.25;;;4.90;;
18217;SDS011;9234;49.344;11.120;2023-05-29T05:43:51;6.93;;;4.78;;
18217;SDS011;9234;49.344;11.120;2023-05-29T05:46:27;8.32;;;5.18;;
18217;SDS011;9234;49.344;11.120;2023-05-29T05:48:56;7.47;;;4.70;;
18217;SDS011;9234;49.344;11.120;2023-05-29T05:51:26;7.82;;;4.80;;
18217;SDS011;9234;49.344;11.120;2023-05-29T05:53:54;7.82;;;4.88;;
18217;SDS011;9234;49.344;11.120;2023-05-29T05:56:23;10.13;;;5.13;;
18217;SDS011;9234;49.344;11.120;2023-05-29T05:58:52;9.52;;;4.78;;
18217;SDS011;9234;49.344;11.120;2023-05-29T06:01:20;4.88;;;3.75;;
18217;SDS011;9234;49.344;11.120;2023-05-29T06:03:49;8.93;;;4.23;;
18217;SDS011;9234;49.344;11.120;2023-05-29T06:06:18;7.37;;;3.93;;
18217;SDS011;9234;49.344;11.120;2023-05-29T06:08:49;5.57;;;4.40;;
18217;SDS011;9234;49.344;11.120;2023-05-29T06:11:18;9.40;;;4.03;;
18217;SDS011;9234;49.344;11.120;2023-05-29T06:13:47;6.50;;;3.28;;
18217;SDS011;9234;49.344;11.120;2023-05-29T06:16:20;5.03;;;3.60;;
18217;SDS011;9234;49.344;11.120;2023-05-29T06:18:50;7.35;;;3.50;;
18217;SDS011;9234;49.344;11.120;2023-05-29T06:21:19;6.30;;;3.75;;
18217;SDS011;9234;49.344;11.120;2023-05-29T06:23:53;6.43;;;3.25;;
18217;SDS011;9234;49.344;11.120;2023-05-29T06:26:21;3.92;;;3.08;;
18217;SDS011;9234;49.344;11.120;2023-05-29T06:28:52;3.47;;;2.78;;
18217;SDS011;9234;49.344;11.120;2023-05-29T06:31:20;5.45;;;2.88;;
18217;SDS011;9234;49.344;11.120;2023-05-29T06:33:48;3.85;;;2.90;;
18217;SDS011;9234;49.344;11.120;2023-05-29T06:36:17;4.05;;;3.20;;
18217;SDS011;9234;49.344;11.120;2023-05-29T06:38:48;5.63;;;3.08;;
18217;SDS011;9234;49.344;11.120;2023-05-29T06:41:19;5.80;;;2.80;;
18217;SDS011;9234;49.344;11.120;2023-05-29T06:43:48;5.03;;;3.40;;
18217;SDS011;9234;49.344;11.120;2023-05-29T06:46:20;5.82;;;3.58;;
18217;SDS011;9234;49.344;11.120;2023-05-29T06:48:48;3.83;;;2.75;;
18217;SDS011;9234;49.344;11.120;2023-05-29T06:51:17;4.68;;;3.08;;
18217;SDS011;9234;49.344;11.120;2023-05-29T06:53:54;3.97;;;2.72;;
18217;SDS011;9234;49.344;11.120;2023-05-29T06:56:25;4.60;;;3.42;;
18217;SDS011;9234;49.344;11.120;2023-05-29T06:58:54;4.97;;;2.67;;
18217;SDS011;9234;49.344;11.120;2023-05-29T07:01:22;4.78;;;2.50;;
18217;SDS011;9234;49.344;11.120;2023-05-29T07:04:03;3.75;;;2.88;;
18217;SDS011;9234;49.344;11.120;2023-05-29T07:06:33;6.18;;;3.25;;
18217;SDS011;9234;49.344;11.120;2023-05-29T07:09:04;3.78;;;2.28;;
18217;SDS011;9234;49.344;11.120;2023-05-29T07:11:35;4.63;;;2.85;;
18217;SDS011;9234;49.344;11.120;2023-05-29T07:14:05;4.80;;;3.08;;
18217;SDS011;9234;49.344;11.120;2023-05-29T07:16:33;3.53;;;2.70;;
18217;SDS011;9234;49.344;11.120;2023-05-29T07:19:04;5.60;;;2.80;;
18217;SDS011;9234;49.344;11.120;2023-05-29T07:21:45;5.32;;;2.90;;
18217;SDS011;9234;49.344;11.120;2023-05-29T07:24:15;4.55;;;2.60;;
18217;SDS011;9234;49.344;11.120;2023-05-29T07:26:45;3.15;;;2.40;;
18217;SDS011;9234;49.344;11.120;2023-05-29T07:29:13;4.22;;;2.53;;
18217;SDS011;9234;49.344;11.120;2023-05-29T07:31:43;3.78;;;2.50;;
18217;SDS011;9234;49.344;11.120;2023-05-29T07:34:11;6.28;;;2.53;;
18217;SDS011;9234;49.344;11.120;2023-05-29T07:36:55;3.72;;;2.90;;
18217;SDS011;9234;49.344;11.120;2023-05-29T07:39:26;4.13;;;2.35;;
18217;SDS011;9234;49.344;11.120;2023-05-29T07:41:58;15.38;;;3.45;;
18217;SDS011;9234;49.344;11.120;2023-05-29T07:44:27;5.10;;;2.67;;
18217;SDS011;9234;49.344;11.120;2023-05-29T07:46:56;7.63;;;3.13;;
18217;SDS011;9234;49.344;11.120;2023-05-29T07:49:32;5.85;;;2.67;;
18217;SDS011;9234;49.344;11.120;2023-05-29T07:52:00;4.05;;;2.08;;
18217;SDS011;9234;49.344;11.120;2023-05-29T07:54:30;4.07;;;2.75;;
18217;SDS011;9234;49.344;11.120;2023-05-29T07:57:01;6.18;;;3.03;;
18217;SDS011;9234;49.344;11.120;2023-05-29T07:59:30;3.33;;;2.47;;
18217;SDS011;9234;49.344;11.120;2023-05-29T08:01:59;2.33;;;2.03;;
18217;SDS011;9234;49.344;11.120;2023-05-29T08:04:43;5.20;;;2.45;;
18217;SDS011;9234;49.344;11.120;2023-05-29T08:07:11;4.70;;;3.10;;
18217;SDS011;9234;49.344;11.120;2023-05-29T08:09:39;4.28;;;2.88;;
18217;SDS011;9234;49.344;11.120;2023-05-29T08:12:09;4.15;;;2.67;;
18217;SDS011;9234;49.344;11.120;2023-05-29T08:14:38;6.88;;;2.83;;
18217;SDS011;9234;49.344;11.120;2023-05-29T08:17:06;4.80;;;2.67;;
18217;SDS011;9234;49.344;11.120;2023-05-29T08:19:35;4.38;;;2.58;;
18217;SDS011;9234;49.344;11.120;2023-05-29T08:22:03;3.47;;;2.67;;
18217;SDS011;9234;49.344;11.120;2023-05-29T08:24:32;4.38;;;2.50;;
18217;SDS011;9234;49.344;11.120;2023-05-29T08:27:00;3.65;;;2.42;;
18217;SDS011;9234;49.344;11.120;2023-05-29T08:29:30;5.35;;;2.80;;
18217;SDS011;9234;49.344;11.120;2023-05-29T08:31:58;3.08;;;2.28;;
18217;SDS011;9234;49.344;11.120;2023-05-29T08:34:27;5.32;;;2.35;;
18217;SDS011;9234;49.344;11.120;2023-05-29T08:36:55;4.93;;;2.40;;
18217;SDS011;9234;49.344;11.120;2023-05-29T08:39:24;3.25;;;2.13;;
18217;SDS011;9234;49.344;11.120;2023-05-29T08:41:54;4.25;;;2.75;;
18217;SDS011;9234;49.344;11.120;2023-05-29T08:44:30;4.95;;;2.72;;
18217;SDS011;9234;49.344;11.120;2023-05-29T08:47:00;3.55;;;2.30;;
18217;SDS011;9234;49.344;11.120;2023-05-29T08:49:33;6.65;;;2.75;;
18217;SDS011;9234;49.344;11.120;2023-05-29T08:52:09;5.47;;;2.88;;
18217;SDS011;9234;49.344;11.120;2023-05-29T08:54:43;4.10;;;2.60;;
18217;SDS011;9234;49.344;11.120;2023-05-29T08:57:12;2.58;;;2.33;;
18217;SDS011;9234;49.344;11.120;2023-05-29T08:59:43;4.55;;;2.92;;
18217;SDS011;9234;49.344;11.120;2023-05-29T09:02:13;9.73;;;3.00;;
18217;SDS011;9234;49.344;11.120;2023-05-29T09:04:42;5.03;;;2.67;;
18217;SDS011;9234;49.344;11.120;2023-05-29T09:07:15;4.43;;;2.60;;
18217;SDS011;9234;49.344;11.120;2023-05-29T09:09:45;2.80;;;2.30;;
18217;SDS011;9234;49.344;11.120;2023-05-29T09:12:14;4.88;;;3.03;;
18217;SDS011;9234;49.344;11.120;2023-05-29T09:14:44;4.38;;;3.10;;
18217;SDS011;9234;49.344;11.120;2023-05-29T09:17:13;4.22;;;2.65;;
18217;SDS011;9234;49.344;11.120;2023-05-29T09:19:42;4.55;;;2.63;;
18217;SDS011;9234;49.344;11.120;2023-05-29T09:22:12;4.40;;;2.92;;
18217;SDS011;9234;49.344;11.120;2023-05-29T09:24:42;6.63;;;2.35;;
18217;SDS011;9234;49.344;11.120;2023-05-29T09:27:14;5.50;;;2.33;;
18217;SDS011;9234;49.344;11.120;2023-05-29T09:29:43;3.78;;;2.40;;
18217;SDS011;9234;49.344;11.120;2023-05-29T09:32:14;3.13;;;2.47;;
18217;SDS011;9234;49.344;11.120;2023-05-29T09:34:44;10.82;;;3.20;;
18217;SDS011;9234;49.344;11.120;2023-05-29T09:37:13;4.03;;;2.53;;
18217;SDS011;9234;49.344;11.120;2023-05-29T09:39:44;4.85;;;2.40;;
18217;SDS011;9234;49.344;11.120;2023-05-29T09:42:14;4.55;;;2.40;;
18217;SDS011;9234;49.344;11.120;2023-05-29T09:44:44;4.00;;;2.63;;
18217;SDS011;9234;49.344;11.120;2023-05-29T09:47:19;5.97;;;2.70;;
18217;SDS011;9234;49.344;11.120;2023-05-29T09:49:47;13.90;;;3.40;;
18217;SDS011;9234;49.344;11.120;2023-05-29T09:52:16;2.97;;;2.45;;
18217;SDS011;9234;49.344;11.120;2023-05-29T09:54:49;5.88;;;2.63;;
18217;SDS011;9234;49.344;11.120;2023-05-29T09:57:18;12.15;;;3.17;;
18217;SDS011;9234;49.344;11.120;2023-05-29T09:59:52;8.15;;;3.35;;
18217;SDS011;9234;49.344;11.120;2023-05-29T10:02:20;7.30;;;3.38;;
18217;SDS011;9234;49.344;11.120;2023-05-29T10:04:49;3.00;;;2.60;;
18217;SDS011;9234;49.344;11.120;2023-05-29T10:07:20;3.00;;;2.70;;
18217;SDS011;9234;49.344;11.120;2023-05-29T10:09:55;6.65;;;3.08;;
18217;SDS011;9234;49.344;11.120;2023-05-29T10:12:34;4.47;;;2.58;;
18217;SDS011;9234;49.344;11.120;2023-05-29T10:15:10;2.95;;;2.25;;
18217;SDS011;9234;49.344;11.120;2023-05-29T10:17:47;5.97;;;2.63;;
18217;SDS011;9234;49.344;11.120;2023-05-29T10:20:20;5.22;;;2.90;;
18217;SDS011;9234;49.344;11.120;2023-05-29T10:22:50;12.32;;;3.80;;
18217;SDS011;9234;49.344;11.120;2023-05-29T10:25:23;7.38;;;2.50;;
18217;SDS011;9234;49.344;11.120;2023-05-29T10:27:54;5.00;;;2.72;;
18217;SDS011;9234;49.344;11.120;2023-05-29T10:30:29;8.35;;;2.70;;
18217;SDS011;9234;49.344;11.120;2023-05-29T10:33:14;4.75;;;2.78;;
18217;SDS011;9234;49.344;11.120;2023-05-29T10:36:10;3.95;;;2.58;;
18217;SDS011;9234;49.344;11.120;2023-05-29T10:38:44;5.53;;;3.13;;
18217;SDS011;9234;49.344;11.120;2023-05-29T10:43:59;4.38;;;2.25;;
18217;SDS011;9234;49.344;11.120;2023-05-29T10:49:34;4.60;;;2.97;;
18217;SDS011;9234;49.344;11.120;2023-05-29T10:52:04;3.13;;;2.67;;
18217;SDS011;9234;49.344;11.120;2023-05-29T10:54:52;5.10;;;3.15;;
18217;SDS011;9234;49.344;11.120;2023-05-29T10:57:24;4.50;;;2.80;;
18217;SDS011;9234;49.344;11.120;2023-05-29T10:59:59;2.70;;;2.50;;
18217;SDS011;9234;49.344;11.120;2023-05-29T11:02:40;3.10;;;2.35;;
18217;SDS011;9234;49.344;11.120;2023-05-29T11:05:19;13.98;;;4.18;;
18217;SDS011;9234;49.344;11.120;2023-05-29T11:08:01;4.53;;;2.40;;
18217;SDS011;9234;49.344;11.120;2023-05-29T11:10:40;2.97;;;2.42;;
18217;SDS011;9234;49.344;11.120;2023-05-29T11:13:24;5.57;;;2.67;;
18217;SDS011;9234;49.344;11.120;2023-05-29T11:16:09;6.43;;;2.28;;
18217;SDS011;9234;49.344;11.120;2023-05-29T11:18:48;3.08;;;2.28;;
18217;SDS011;9234;49.344;11.120;2023-05-29T11:21:26;4.05;;;2.45;;
18217;SDS011;9234;49.344;11.120;2023-05-29T11:24:02;2.15;;;1.95;;
18217;SDS011;9234;49.344;11.120;2023-05-29T11:26:34;3.40;;;2.42;;
18217;SDS011;9234;49.344;11.120;2023-05-29T11:29:06;2.40;;;2.20;;
18217;SDS011;9234;49.344;11.120;2023-05-29T11:31:37;3.92;;;2.28;;
18217;SDS011;9234;49.344;11.120;2023-05-29T11:34:12;2.40;;;2.20;;
18217;SDS011;9234;49.344;11.120;2023-05-29T11:36:42;2.60;;;2.35;;
18217;SDS011;9234;49.344;11.120;2023-05-29T11:39:12;3.83;;;2.53;;
18217;SDS011;9234;49.344;11.120;2023-05-29T11:41:41;4.03;;;2.85;;
18217;SDS011;9234;49.344;11.120;2023-05-29T11:44:09;5.10;;;2.28;;
18217;SDS011;9234;49.344;11.120;2023-05-29T11:46:41;2.80;;;1.92;;
18217;SDS011;9234;49.344;11.120;2023-05-29T11:49:11;2.25;;;2.00;;
18217;SDS011;9234;49.344;11.120;2023-05-29T11:51:41;9.23;;;2.50;;
18217;SDS011;9234;49.344;11.120;2023-05-29T11:54:11;10.07;;;2.85;;
18217;SDS011;9234;49.344;11.120;2023-05-29T11:56:40;3.05;;;2.58;;
18217;SDS011;9234;49.344;11.120;2023-05-29T11:59:10;8.73;;;1.95;;
18217;SDS011;9234;49.344;11.120;2023-05-29T12:01:39;2.53;;;2.28;;
18217;SDS011;9234;49.344;11.120;2023-05-29T12:04:15;2.50;;;2.30;;
18217;SDS011;9234;49.344;11.120;2023-05-29T12:06:43;4.45;;;2.70;;
18217;SDS011;9234;49.344;11.120;2023-05-29T12:09:23;2.55;;;2.20;;
18217;SDS011;9234;49.344;11.120;2023-05-29T12:11:53;3.10;;;2.80;;
18217;SDS011;9234;49.344;11.120;2023-05-29T12:14:28;3.58;;;3.08;;
18217;SDS011;9234;49.344;11.120;2023-05-29T12:16:56;2.88;;;2.58;;
18217;SDS011;9234;49.344;11.120;2023-05-29T12:19:26;7.13;;;2.33;;
18217;SDS011;9234;49.344;11.120;2023-05-29T12:21:56;2.20;;;2.00;;
18217;SDS011;9234;49.344;11.120;2023-05-29T12:24:24;2.25;;;2.05;;
18217;SDS011;9234;49.344;11.120;2023-05-29T12:26:57;3.20;;;2.22;;
18217;SDS011;9234;49.344;11.120;2023-05-29T12:29:29;2.33;;;2.08;;
18217;SDS011;9234;49.344;11.120;2023-05-29T12:31:58;4.80;;;2.35;;
18217;SDS011;9234;49.344;11.120;2023-05-29T12:34:29;3.55;;;2.03;;
18217;SDS011;9234;49.344;11.120;2023-05-29T12:37:05;3.47;;;2.20;;
18217;SDS011;9234;49.344;11.120;2023-05-29T12:39:39;5.30;;;2.50;;
18217;SDS011;9234;49.344;11.120;2023-05-29T12:42:07;2.85;;;2.10;;
18217;SDS011;9234;49.344;11.120;2023-05-29T12:44:37;3.90;;;2.50;;
18217;SDS011;9234;49.344;11.120;2023-05-29T12:47:05;2.85;;;2.40;;
18217;SDS011;9234;49.344;11.120;2023-05-29T12:49:36;5.65;;;2.60;;
18217;SDS011;9234;49.344;11.120;2023-05-29T12:52:05;46.65;;;9.15;;
18217;SDS011;9234;49.344;11.120;2023-05-29T12:54:36;37.25;;;6.47;;
18217;SDS011;9234;49.344;11.120;2023-05-29T12:57:05;32.78;;;4.95;;
18217;SDS011;9234;49.344;11.120;2023-05-29T12:59:34;85.05;;;10.57;;
18217;SDS011;9234;49.344;11.120;2023-05-29T13:02:03;36.17;;;5.82;;
18217;SDS011;9234;49.344;11.120;2023-05-29T13:04:34;8.10;;;2.72;;
18217;SDS011;9234;49.344;11.120;2023-05-29T13:07:04;13.43;;;3.33;;
18217;SDS011;9234;49.344;11.120;2023-05-29T13:09:32;87.93;;;8.30;;
18217;SDS011;9234;49.344;11.120;2023-05-29T13:12:01;5.93;;;2.60;;
18217;SDS011;9234;49.344;11.120;2023-05-29T13:14:29;3.50;;;2.22;;
18217;SDS011;9234;49.344;11.120;2023-05-29T13:16:58;6.50;;;2.38;;
18217;SDS011;9234;49.344;11.120;2023-05-29T13:19:26;5.20;;;2.30;;
18217;SDS011;9234;49.344;11.120;2023-05-29T13:21:54;8.80;;;2.72;;
18217;SDS011;9234;49.344;11.120;2023-05-29T13:24:24;7.82;;;2.70;;
18217;SDS011;9234;49.344;11.120;2023-05-29T13:26:52;4.18;;;2.15;;
18217;SDS011;9234;49.344;11.120;2023-05-29T13:29:20;4.13;;;2.10;;
18217;SDS011;9234;49.344;11.120;2023-05-29T13:31:48;2.45;;;1.88;;
18217;SDS011;9234;49.344;11.120;2023-05-29T13:34:17;2.83;;;2.63;;
18217;SDS011;9234;49.344;11.120;2023-05-29T13:36:45;7.13;;;2.38;;
18217;SDS011;9234;49.344;11.120;2023-05-29T13:39:13;3.92;;;2.25;;
18217;SDS011;9234;49.344;11.120;2023-05-29T13:41:43;3.65;;;2.60;;
18217;SDS011;9234;49.344;11.120;2023-05-29T13:44:11;3.38;;;2.70;;
18217;SDS011;9234;49.344;11.120;2023-05-29T13:46:39;3.55;;;1.90;;
18217;SDS011;9234;49.344;11.120;2023-05-29T13:49:08;2.53;;;2.20;;
18217;SDS011;9234;49.344;11.120;2023-05-29T13:51:36;3.65;;;2.60;;
18217;SDS011;9234;49.344;11.120;2023-05-29T13:54:05;2.85;;;2.53;;
18217;SDS011;9234;49.344;11.120;2023-05-29T13:56:33;3.75;;;2.42;;
18217;SDS011;9234;49.344;11.120;2023-05-29T13:59:03;3.40;;;2.17;;
18217;SDS011;9234;49.344;11.120;2023-05-29T14:01:32;4.10;;;2.78;;
18217;SDS011;9234;49.344;11.120;2023-05-29T14:04:01;2.67;;;2.47;;
18217;SDS011;9234;49.344;11.120;2023-05-29T14:06:29;3.60;;;2.25;;
18217;SDS011;9234;49.344;11.120;2023-05-29T14:08:58;2.63;;;2.38;;
18217;SDS011;9234;49.344;11.120;2023-05-29T14:11:27;4.95;;;2.80;;
18217;SDS011;9234;49.344;11.120;2023-05-29T14:13:55;4.20;;;2.35;;
18217;SDS011;9234;49.344;11.120;2023-05-29T14:16:25;3.60;;;2.30;;
18217;SDS011;9234;49.344;11.120;2023-05-29T14:18:53;3.22;;;2.90;;
18217;SDS011;9234;49.344;11.120;2023-05-29T14:21:21;2.78;;;2.50;;
18217;SDS011;9234;49.344;11.120;2023-05-29T14:23:50;5.22;;;2.55;;
18217;SDS011;9234;49.344;11.120;2023-05-29T14:26:18;6.50;;;2.90;;
18217;SDS011;9234;49.344;11.120;2023-05-29T14:28:47;4.43;;;2.83;;
18217;SDS011;9234;49.344;11.120;2023-05-29T14:31:22;4.25;;;2.97;;
18217;SDS011;9234;49.344;11.120;2023-05-29T14:33:51;2.53;;;2.22;;
18217;SDS011;9234;49.344;11.120;2023-05-29T14:36:20;3.38;;;2.88;;
18217;SDS011;9234;49.344;11.120;2023-05-29T14:38:48;2.65;;;2.45;;
18217;SDS011;9234;49.344;11.120;2023-05-29T14:41:16;6.22;;;2.75;;
18217;SDS011;9234;49.344;11.120;2023-05-29T14:43:44;7.18;;;3.08;;
18217;SDS011;9234;49.344;11.120;2023-05-29T14:46:13;4.50;;;2.88;;
18217;SDS011;9234;49.344;11.120;2023-05-29T14:48:41;5.43;;;3.30;;
18217;SDS011;9234;49.344;11.120;2023-05-29T14:51:10;6.32;;;3.05;;
18217;SDS011;9234;49.344;11.120;2023-05-29T14:53:39;4.03;;;2.72;;
18217;SDS011;9234;49.344;11.120;2023-05-29T14:56:07;2.78;;;2.58;;
18217;SDS011;9234;49.344;11.120;2023-05-29T14:58:35;3.85;;;2.72;;
18217;SDS011;9234;49.344;11.120;2023-05-29T15:01:04;3.75;;;2.70;;
18217;SDS011;9234;49.344;11.120;2023-05-29T15:03:32;3.13;;;2.38;;
18217;SDS011;9234;49.344;11.120;2023-05-29T15:06:02;4.18;;;2.83;;
18217;SDS011;9234;49.344;11.120;2023-05-29T15:08:32;7.10;;;3.33;;
18217;SDS011;9234;49.344;11.120;2023-05-29T15:11:01;2.75;;;2.28;;
18217;SDS011;9234;49.344;11.120;2023-05-29T15:13:30;2.65;;;2.45;;
18217;SDS011;9234;49.344;11.120;2023-05-29T15:15:58;2.92;;;2.67;;
18217;SDS011;9234;49.344;11.120;2023-05-29T15:18:26;5.72;;;2.83;;
18217;SDS011;9234;49.344;11.120;2023-05-29T15:20:55;5.65;;;3.05;;
18217;SDS011;9234;49.344;11.120;2023-05-29T15:23:24;3.97;;;2.72;;